Time;durP1;ratioP1;P1;durP2;ratioP2;P2;SDS_P1;SDS_P2;PMS_P1;PMS_P2;Temp;Humidity;BMP_temperature;BMP_pressure;BME280_temperature;BME280_humidity;BME280_pressure;Samples;Min_cycle;Max_cycle;Signal;HPM_P1;HPM_P2
2023/05/28 00:02:25;;;;;;;24.95;21.88;;;23.10;1.00;;;;;;5055645;28;20167;-55
2023/05/28 00:04:50;;;;;;;23.95;21.52;;;23.00;1.00;;;;;;5053521;28;20033;-54
2023/05/28 00:07:16;;;;;;;22.30;19.27;;;23.00;1.00;;;;;;5048230;28;20103;-55
2023/05/28 00:09:42;;;;;;;24.13;21.75;;;22.80;1.00;;;;;;5051728;28;20059;-55
2023/05/28 00:12:08;;;;;;;23.05;20.65;;;23.00;1.00;;;;;;5052959;28;20095;-55
2023/05/28 00:14:35;;;;;;;21.50;19.38;;;23.10;1.00;;;;;;5056253;28;20025;-56
2023/05/28 00:17:00;;;;;;;22.25;19.88;;;23.10;1.00;;;;;;5054327;28;20534;-54
2023/05/28 00:19:26;;;;;;;22.20;19.73;;;23.10;1.00;;;;;;5054561;28;20105;-54
2023/05/28 00:21:52;;;;;;;23.23;20.65;;;23.10;1.00;;;;;;5054912;28;20025;-53
2023/05/28 00:24:17;;;;;;;24.85;22.17;;;23.10;1.00;;;;;;5054765;28;20032;-55
2023/05/28 00:26:43;;;;;;;22.58;20.17;;;23.10;1.00;;;;;;5054979;28;20033;-53
2023/05/28 00:29:09;;;;;;;23.13;20.35;;;23.10;1.00;;;;;;5053120;28;20028;-56
2023/05/28 00:31:34;;;;;;;21.63;19.33;;;23.00;1.00;;;;;;5055856;28;20055;-56
2023/05/28 00:34:00;;;;;;;22.85;20.33;;;22.90;1.00;;;;;;5055420;28;20021;-55
2023/05/28 00:36:27;;;;;;;22.80;20.13;;;22.90;1.00;;;;;;5055808;28;20039;-55
2023/05/28 00:38:52;;;;;;;22.30;19.77;;;22.90;1.00;;;;;;5054917;28;20049;-55
2023/05/28 00:41:22;;;;;;;24.20;20.17;;;22.90;1.00;;;;;;5052325;28;20048;-55
2023/05/28 00:43:49;;;;;;;21.77;19.63;;;22.90;1.00;;;;;;5049578;28;20356;-54
2023/05/28 00:46:18;;;;;;;24.85;19.98;;;22.70;99.90;;;;;;5046812;28;20111;-55
2023/05/28 00:48:44;;;;;;;23.77;21.23;;;22.60;1.00;;;;;;5051244;28;20086;-54
2023/05/28 00:51:11;;;;;;;23.63;20.60;;;22.50;1.00;;;;;;5053643;28;20025;-54
2023/05/28 00:53:38;;;;;;;22.88;20.55;;;22.60;1.00;;;;;;5054466;28;20098;-54
2023/05/28 00:56:04;;;;;;;22.42;20.08;;;22.70;1.00;;;;;;5052163;28;20374;-53
2023/05/28 00:58:31;;;;;;;22.02;19.75;;;22.70;1.00;;;;;;5053379;28;20067;-53
2023/05/28 01:00:56;;;;;;;20.88;18.73;;;22.80;1.00;;;;;;5052562;28;20033;-53
2023/05/28 01:03:22;;;;;;;23.17;20.85;;;22.80;1.00;;;;;;5048033;28;20128;-52
2023/05/28 01:05:48;;;;;;;24.27;21.38;;;22.80;1.00;;;;;;5045557;28;20032;-54
2023/05/28 01:08:14;;;;;;;24.85;21.85;;;22.80;1.00;;;;;;5052261;28;20048;-55
2023/05/28 01:10:40;;;;;;;23.00;20.50;;;22.80;1.00;;;;;;5049840;28;20031;-53
2023/05/28 01:13:07;;;;;;;23.65;21.10;;;22.80;1.00;;;;;;5041451;28;20386;-54
2023/05/28 01:15:34;;;;;;;22.58;20.48;;;22.80;1.00;;;;;;5039214;28;20021;-53
2023/05/28 01:18:01;;;;;;;21.45;19.25;;;22.70;1.00;;;;;;5052486;28;20095;-52
2023/05/28 01:20:28;;;;;;;22.33;20.13;;;22.80;1.00;;;;;;5050538;28;20090;-55
2023/05/28 01:22:58;;;;;;;23.25;20.83;;;22.80;1.00;;;;;;5048192;28;20033;-52
2023/05/28 01:25:24;;;;;;;25.92;19.90;;;22.70;1.00;;;;;;5050711;28;20029;-53
2023/05/28 01:27:50;;;;;;;22.13;19.88;;;22.70;1.00;;;;;;5051615;28;20415;-54
2023/05/28 01:30:16;;;;;;;21.77;18.90;;;22.70;1.00;;;;;;5050115;28;20036;-55
2023/05/28 01:32:42;;;;;;;20.85;18.73;;;22.70;1.00;;;;;;5050592;28;20071;-54
2023/05/28 01:35:09;;;;;;;20.85;18.63;;;22.70;1.00;;;;;;5051481;28;20025;-52
2023/05/28 01:37:41;;;;;;;21.43;19.27;;;22.60;1.00;;;;;;5004696;28;1191703;-55
2023/05/28 01:40:08;;;;;;;24.17;20.40;;;22.70;1.00;;;;;;5050372;28;20032;-55
2023/05/28 01:42:35;;;;;;;22.25;19.92;;;22.60;1.00;;;;;;5049166;28;20510;-55
2023/05/28 01:45:02;;;;;;;23.13;20.40;;;22.60;1.00;;;;;;5051550;28;20482;-55
2023/05/28 01:47:29;;;;;;;22.35;20.00;;;22.60;1.00;;;;;;5038108;28;20065;-55
2023/05/28 01:49:55;;;;;;;22.58;20.23;;;22.60;1.00;;;;;;5041515;28;20032;-54
2023/05/28 01:52:21;;;;;;;21.45;19.15;;;22.50;1.00;;;;;;5042407;28;20514;-49
2023/05/28 01:54:47;;;;;;;22.55;20.15;;;22.60;1.00;;;;;;5048352;28;20021;-53
2023/05/28 01:57:13;;;;;;;22.42;20.13;;;22.60;1.00;;;;;;5050495;28;20470;-52
2023/05/28 01:59:38;;;;;;;22.00;19.80;;;22.60;1.00;;;;;;5052165;28;20021;-56
2023/05/28 02:02:05;;;;;;;22.40;19.95;;;22.50;1.00;;;;;;5050542;28;20037;-55
2023/05/28 02:04:43;;;;;;;21.60;19.45;;;22.50;1.00;;;;;;5052284;28;20055;-55
2023/05/28 02:07:09;;;;;;;21.33;19.23;;;22.50;1.00;;;;;;5047206;28;20040;-50
2023/05/28 02:09:34;;;;;;;20.88;18.50;;;22.50;1.00;;;;;;5050016;28;20029;-54
2023/05/28 02:12:02;;;;;;;21.92;19.73;;;22.40;1.00;;;;;;5051757;28;20091;-51
2023/05/28 02:14:29;;;;;;;24.65;20.63;;;22.40;1.00;;;;;;5052910;28;20402;-53
2023/05/28 02:16:55;;;;;;;23.85;21.38;;;22.40;1.00;;;;;;5050244;28;20083;-52
2023/05/28 02:19:21;;;;;;;23.20;20.17;;;22.40;1.00;;;;;;5048786;28;20029;-55
2023/05/28 02:21:47;;;;;;;23.17;19.02;;;22.40;1.00;;;;;;5051692;28;20025;-53
2023/05/28 02:24:16;;;;;;;23.90;20.58;;;22.40;1.00;;;;;;5050654;28;20438;-53
2023/05/28 02:26:41;;;;;;;23.75;19.58;;;22.40;1.00;;;;;;5050793;28;20127;-54
2023/05/28 02:29:07;;;;;;;22.23;20.02;;;22.40;1.00;;;;;;5050523;28;20554;-55
2023/05/28 02:31:33;;;;;;;21.00;18.80;;;22.30;1.00;;;;;;5049461;28;20028;-54
2023/05/28 02:33:58;;;;;;;20.52;18.25;;;22.30;1.00;;;;;;5049215;28;20021;-52
2023/05/28 02:36:24;;;;;;;20.85;18.65;;;22.30;1.00;;;;;;5049610;28;20123;-48
2023/05/28 02:38:50;;;;;;;19.83;17.83;;;22.30;1.00;;;;;;5050977;28;20045;-51
2023/05/28 02:41:15;;;;;;;20.13;18.10;;;22.30;1.00;;;;;;5048318;28;20033;-54
2023/05/28 02:43:43;;;;;;;19.98;17.85;;;22.20;1.00;;;;;;5049262;28;20036;-53
2023/05/28 02:46:08;;;;;;;18.63;16.67;;;22.20;1.00;;;;;;5037687;28;20041;-56
2023/05/28 02:48:37;;;;;;;19.08;17.08;;;22.20;1.00;;;;;;5039248;28;20056;-53
2023/05/28 02:51:03;;;;;;;18.88;16.98;;;22.20;1.00;;;;;;5047430;28;20065;-51
2023/05/28 02:53:33;;;;;;;18.42;16.58;;;22.20;1.00;;;;;;5050891;28;20067;-52
2023/05/28 02:55:59;;;;;;;20.52;16.48;;;22.20;1.00;;;;;;5049478;28;20040;-53
2023/05/28 02:58:28;;;;;;;18.52;14.95;;;22.20;1.00;;;;;;5050509;28;20025;-50
2023/05/28 03:01:06;;;;;;;19.30;17.40;;;22.10;1.00;;;;;;5047860;28;20119;-48
2023/05/28 03:03:32;;;;;;;17.85;15.85;;;22.10;1.00;;;;;;5049301;28;20040;-50
2023/05/28 03:05:57;;;;;;;17.33;15.48;;;22.10;1.00;;;;;;5048134;28;20028;-49
2023/05/28 03:08:26;;;;;;;18.67;16.25;;;22.10;1.00;;;;;;5047039;28;20091;-48
2023/05/28 03:10:55;;;;;;;16.65;15.13;;;22.10;1.00;;;;;;5046030;28;20033;-50
2023/05/28 03:13:20;;;;;;;16.42;14.80;;;22.00;1.00;;;;;;5050344;28;20068;-52
2023/05/28 03:15:46;;;;;;;17.38;15.15;;;21.90;1.00;;;;;;5049446;28;20561;-53
2023/05/28 03:18:12;;;;;;;16.13;14.52;;;22.00;1.00;;;;;;5050411;28;20497;-51
2023/05/28 03:20:38;;;;;;;15.88;14.18;;;22.00;1.00;;;;;;5047768;28;20048;-50
2023/05/28 03:23:04;;;;;;;17.08;15.27;;;22.10;1.00;;;;;;5049981;28;20258;-51
2023/05/28 03:25:30;;;;;;;17.85;16.05;;;21.90;1.00;;;;;;5049468;28;20041;-52
2023/05/28 03:27:56;;;;;;;22.02;14.82;;;21.90;1.00;;;;;;5034041;28;20041;-47
2023/05/28 03:30:22;;;;;;;17.35;14.98;;;21.90;1.00;;;;;;5040473;28;20069;-54
2023/05/28 03:32:50;;;;;;;16.05;14.30;;;21.80;1.00;;;;;;5048987;28;20029;-53
2023/05/28 03:35:16;;;;;;;16.23;14.38;;;21.90;1.00;;;;;;5034456;28;20109;-53
2023/05/28 03:37:42;;;;;;;16.38;14.68;;;21.80;1.00;;;;;;5050178;28;20045;-51
2023/05/28 03:40:09;;;;;;;17.52;14.80;;;21.80;1.00;;;;;;5048355;28;20036;-55
2023/05/28 03:42:36;;;;;;;16.27;14.60;;;21.80;1.00;;;;;;5048532;28;20037;-50
2023/05/28 03:45:02;;;;;;;15.60;13.85;;;21.70;1.00;;;;;;5049060;28;20033;-54
2023/05/28 03:47:30;;;;;;;15.82;13.95;;;21.70;1.00;;;;;;5046747;28;20037;-54
2023/05/28 03:49:57;;;;;;;14.85;13.27;;;21.80;1.00;;;;;;5047045;28;20028;-55
2023/05/28 03:52:22;;;;;;;15.52;13.18;;;21.80;1.00;;;;;;5047383;28;20075;-53
2023/05/28 03:54:48;;;;;;;15.90;14.30;;;21.80;1.00;;;;;;5050425;28;20130;-50
2023/05/28 03:57:14;;;;;;;14.07;12.68;;;21.70;1.00;;;;;;5048424;28;20029;-50
2023/05/28 03:59:40;;;;;;;15.60;13.20;;;21.70;1.00;;;;;;5043492;28;20029;-50
2023/05/28 04:02:05;;;;;;;14.52;12.70;;;21.80;1.00;;;;;;5047792;28;20037;-52
2023/05/28 04:04:33;;;;;;;14.15;12.20;;;21.80;1.00;;;;;;5042312;28;20175;-56
2023/05/28 04:06:59;;;;;;;15.05;13.57;;;21.90;1.00;;;;;;5049458;28;20037;-54
2023/05/28 04:09:26;;;;;;;15.25;13.75;;;21.90;1.00;;;;;;5047670;28;20021;-51
2023/05/28 04:11:52;;;;;;;14.10;12.68;;;21.90;1.00;;;;;;5049880;28;20108;-51
2023/05/28 04:14:18;;;;;;;14.38;12.40;;;21.90;1.00;;;;;;5048591;28;20065;-53
2023/05/28 04:16:43;;;;;;;16.42;13.32;;;21.90;1.00;;;;;;5048757;28;20426;-53
2023/05/28 04:19:09;;;;;;;13.52;12.07;;;21.90;1.00;;;;;;5048237;28;20021;-52
2023/05/28 04:22:00;;;;;;;14.20;12.70;;;21.90;1.00;;;;;;5047411;28;20374;-52
2023/05/28 04:25:09;;;;;;;13.95;12.55;;;21.80;1.00;;;;;;5049564;28;20032;-54
2023/05/28 04:27:35;;;;;;;13.75;12.40;;;21.90;1.00;;;;;;5045771;28;20045;-50
2023/05/28 04:30:00;;;;;;;12.80;11.45;;;21.90;1.00;;;;;;5048022;28;20033;-48
2023/05/28 04:32:27;;;;;;;13.55;12.15;;;21.90;1.00;;;;;;5053630;28;20033;-53
2023/05/28 04:34:53;;;;;;;13.88;12.52;;;21.90;1.00;;;;;;5033814;28;20116;-53
2023/05/28 04:37:19;;;;;;;15.10;12.48;;;21.90;1.00;;;;;;5052916;28;20457;-51
2023/05/28 04:39:45;;;;;;;13.80;12.48;;;21.90;1.00;;;;;;5042767;28;20028;-54
2023/05/28 04:42:16;;;;;;;12.55;11.38;;;21.80;1.00;;;;;;5052953;28;20052;-53
2023/05/28 04:44:43;;;;;;;13.73;11.85;;;21.80;1.00;;;;;;5049797;28;20036;-54
2023/05/28 04:47:09;;;;;;;13.90;11.65;;;21.80;1.00;;;;;;5033212;28;20091;-53
2023/05/28 04:49:34;;;;;;;13.88;11.68;;;21.90;1.00;;;;;;5041064;28;20069;-55
2023/05/28 04:52:00;;;;;;;13.77;11.38;;;21.90;1.00;;;;;;5050873;28;20108;-52
2023/05/28 04:54:26;;;;;;;11.82;10.73;;;21.90;1.00;;;;;;5052658;28;20029;-51
2023/05/28 04:56:52;;;;;;;13.40;12.10;;;21.90;1.00;;;;;;5051064;28;20029;-49
2023/05/28 04:59:18;;;;;;;12.25;10.32;;;21.90;1.00;;;;;;5051879;28;20029;-52
2023/05/28 05:01:43;;;;;;;12.48;9.98;;;21.90;1.00;;;;;;5044731;28;20115;-49
2023/05/28 05:07:38;;;;;;;11.77;10.60;;;21.90;1.00;;;;;;5049099;28;20052;-51
2023/05/28 05:10:08;;;;;;;12.43;10.85;;;21.90;1.00;;;;;;5040484;28;20021;-49
2023/05/28 05:12:34;;;;;;;11.48;10.35;;;21.90;1.00;;;;;;5037069;28;20037;-49
2023/05/28 05:14:59;;;;;;;12.30;11.00;;;21.90;1.00;;;;;;5048443;28;20024;-52
2023/05/28 05:17:25;;;;;;;12.35;11.05;;;21.90;1.00;;;;;;5052506;28;20395;-50
2023/05/28 05:19:51;;;;;;;14.48;11.20;;;21.90;1.00;;;;;;5045782;28;20029;-50
2023/05/28 05:22:16;;;;;;;13.85;11.27;;;22.00;1.00;;;;;;5052689;28;20029;-52
2023/05/28 05:24:42;;;;;;;12.60;11.30;;;22.00;1.00;;;;;;5050315;28;20013;-54
2023/05/28 05:27:36;;;;;;;12.57;11.38;;;21.90;1.00;;;;;;5052583;28;20045;-54
2023/05/28 05:30:03;;;;;;;12.20;11.02;;;21.90;1.00;;;;;;5051077;28;20415;-52
2023/05/28 05:32:28;;;;;;;12.95;10.65;;;21.90;1.00;;;;;;5052049;28;20086;-49
2023/05/28 05:34:54;;;;;;;15.30;11.45;;;22.00;1.00;;;;;;5049784;28;20767;-52
2023/05/28 05:37:20;;;;;;;13.23;11.55;;;21.90;1.00;;;;;;5051993;28;20107;-49
2023/05/28 05:39:46;;;;;;;13.10;11.63;;;22.00;1.00;;;;;;5044596;28;20029;-50
2023/05/28 05:42:11;;;;;;;13.80;11.70;;;21.90;1.00;;;;;;5050521;28;20040;-51
2023/05/28 05:44:37;;;;;;;11.73;10.52;;;21.90;1.00;;;;;;5050951;28;20074;-55
2023/05/28 05:47:03;;;;;;;13.68;11.02;;;22.00;1.00;;;;;;5048367;28;20075;-55
2023/05/28 05:49:29;;;;;;;12.07;10.50;;;22.00;1.00;;;;;;5052228;28;20017;-52
2023/05/28 05:51:55;;;;;;;11.60;10.45;;;22.00;1.00;;;;;;5049710;28;20552;-48
2023/05/28 05:54:20;;;;;;;11.25;10.15;;;22.00;1.00;;;;;;5051540;28;20029;-50
2023/05/28 05:56:46;;;;;;;11.02;10.02;;;22.00;1.00;;;;;;5049727;28;20035;-51
2023/05/28 05:59:13;;;;;;;10.80;9.80;;;22.00;1.00;;;;;;5050519;28;20033;-57
2023/05/28 06:01:38;;;;;;;10.18;8.93;;;22.10;1.00;;;;;;5044168;28;20031;-51
2023/05/28 06:04:04;;;;;;;10.02;9.13;;;22.10;1.00;;;;;;5050319;28;20029;-52
2023/05/28 06:06:30;;;;;;;11.80;10.60;;;22.10;1.00;;;;;;5049331;28;20037;-53
2023/05/28 06:08:55;;;;;;;12.13;10.00;;;22.10;1.00;;;;;;5051926;28;20386;-54
2023/05/28 06:11:22;;;;;;;12.90;11.55;;;22.10;1.00;;;;;;5049559;28;20037;-50
2023/05/28 06:13:49;;;;;;;12.98;10.32;;;22.20;1.00;;;;;;5051317;28;20447;-52
2023/05/28 06:16:15;;;;;;;12.23;10.90;;;22.10;1.00;;;;;;5049075;28;20108;-54
2023/05/28 06:18:40;;;;;;;11.90;10.77;;;22.20;1.00;;;;;;5051367;28;20503;-52
2023/05/28 06:21:07;;;;;;;11.70;10.32;;;22.20;1.00;;;;;;5050507;28;20029;-52
2023/05/28 06:23:33;;;;;;;12.80;11.30;;;22.30;1.00;;;;;;5051117;28;20074;-49
2023/05/28 06:25:59;;;;;;;13.95;11.98;;;22.30;1.00;;;;;;5048923;28;20544;-51
2023/05/28 06:28:25;;;;;;;13.10;11.57;;;22.30;1.00;;;;;;5050792;28;20041;-50
2023/05/28 06:30:51;;;;;;;13.80;12.23;;;22.30;1.00;;;;;;5049718;28;20040;-47
2023/05/28 06:33:16;;;;;;;12.20;11.00;;;22.40;1.00;;;;;;5050858;28;20025;-50
2023/05/28 06:35:42;;;;;;;12.70;11.50;;;22.40;1.00;;;;;;5047807;28;20025;-48
2023/05/28 06:38:08;;;;;;;12.48;11.23;;;22.50;1.00;;;;;;5037647;28;20037;-52
2023/05/28 06:40:33;;;;;;;12.65;11.00;;;22.50;1.00;;;;;;5050982;28;20420;-52
2023/05/28 06:43:01;;;;;;;13.68;11.65;;;22.50;1.00;;;;;;5048738;28;20070;-48
2023/05/28 06:45:27;;;;;;;12.90;11.60;;;22.50;1.00;;;;;;5041106;28;20033;-49
2023/05/28 06:47:53;;;;;;;13.80;12.40;;;22.50;1.00;;;;;;5053363;28;20037;-51
2023/05/28 06:50:19;;;;;;;12.40;11.10;;;22.50;1.00;;;;;;5045121;28;20037;-49
2023/05/28 06:52:44;;;;;;;12.57;11.05;;;22.50;1.00;;;;;;5043183;28;20398;-53
2023/05/28 06:55:35;;;;;;;13.32;11.90;;;22.60;1.00;;;;;;5052374;28;20028;-53
2023/05/28 06:58:01;;;;;;;12.20;10.88;;;22.60;1.00;;;;;;5053493;28;20086;-48
2023/05/28 07:00:26;;;;;;;14.98;12.70;;;22.60;1.00;;;;;;5048835;28;20111;-50
2023/05/28 07:02:52;;;;;;;12.48;11.25;;;22.60;1.00;;;;;;5053056;28;20108;-52
2023/05/28 07:05:18;;;;;;;12.85;11.50;;;22.50;1.00;;;;;;5052948;28;20025;-48
2023/05/28 07:07:43;;;;;;;12.93;11.20;;;22.50;1.00;;;;;;5053264;28;20497;-50
2023/05/28 07:10:09;;;;;;;14.68;13.07;;;22.60;1.00;;;;;;5051480;28;20391;-48
2023/05/28 07:12:35;;;;;;;12.55;11.07;;;22.50;1.00;;;;;;5050923;28;20078;-48
2023/05/28 07:15:03;;;;;;;13.20;10.63;;;22.50;1.00;;;;;;5052563;28;20468;-49
2023/05/28 07:17:28;;;;;;;13.65;11.32;;;22.60;1.00;;;;;;5051076;28;20116;-49
2023/05/28 07:19:57;;;;;;;14.48;11.18;;;22.60;1.00;;;;;;5052130;28;20052;-46
2023/05/28 07:22:24;;;;;;;14.80;11.13;;;22.60;1.00;;;;;;5040846;28;20079;-47
2023/05/28 07:24:50;;;;;;;13.15;11.52;;;22.60;1.00;;;;;;5050293;28;20017;-52
2023/05/28 07:27:15;;;;;;;12.63;10.98;;;22.60;1.00;;;;;;5052028;28;20043;-51
2023/05/28 07:29:41;;;;;;;12.23;10.80;;;22.60;1.00;;;;;;5051111;28;20032;-45
2023/05/28 07:35:42;;;;;;;13.30;10.77;;;22.80;1.00;;;;;;5043293;28;20092;-44
2023/05/28 07:38:10;;;;;;;11.93;10.52;;;22.80;1.00;;;;;;5051621;28;20044;-46
2023/05/28 07:40:36;;;;;;;12.18;10.88;;;22.80;1.00;;;;;;5051860;28;20100;-50
2023/05/28 07:43:02;;;;;;;11.75;10.25;;;22.80;1.00;;;;;;5052671;28;20049;-45
2023/05/28 07:45:27;;;;;;;13.23;10.60;;;22.90;1.00;;;;;;5050429;28;20017;-45
2023/05/28 07:47:56;;;;;;;13.40;10.80;;;23.00;1.00;;;;;;5051295;28;20132;-50
2023/05/28 07:50:22;;;;;;;13.30;11.45;;;23.00;1.00;;;;;;5050592;28;20059;-50
2023/05/28 07:52:47;;;;;;;15.15;10.18;;;23.10;1.00;;;;;;5052598;28;20053;-54
2023/05/28 07:55:13;;;;;;;14.25;10.15;;;23.10;1.00;;;;;;5049410;28;20359;-54
2023/05/28 07:57:39;;;;;;;13.60;10.88;;;23.10;1.00;;;;;;5031436;28;20053;-52
2023/05/28 08:00:06;;;;;;;14.57;10.52;;;23.20;1.00;;;;;;5045864;28;20124;-51
2023/05/28 08:02:33;;;;;;;11.25;10.18;;;23.20;1.00;;;;;;5051654;28;20040;-47
2023/05/28 08:05:24;;;;;;;12.20;10.85;;;23.30;1.00;;;;;;5051835;28;20112;-53
2023/05/28 08:07:50;;;;;;;14.57;11.80;;;23.30;1.00;;;;;;5055582;28;20040;-50
2023/05/28 08:10:15;;;;;;;11.80;10.60;;;23.30;1.00;;;;;;5054585;28;20079;-55
2023/05/28 08:12:44;;;;;;;11.73;10.63;;;23.30;1.00;;;;;;5055378;28;20445;-51
2023/05/28 08:15:10;;;;;;;13.38;11.02;;;23.30;1.00;;;;;;5051850;28;20483;-49
2023/05/28 08:17:36;;;;;;;12.15;11.05;;;23.40;1.00;;;;;;5056197;28;20029;-48
2023/05/28 08:20:03;;;;;;;10.02;9.13;;;23.50;1.00;;;;;;5050849;28;20029;-50
2023/05/28 08:22:29;;;;;;;13.32;11.05;;;23.50;1.00;;;;;;5051431;28;20499;-49
2023/05/28 08:24:54;;;;;;;11.70;10.52;;;23.50;1.00;;;;;;5054499;28;20025;-48
2023/05/28 08:27:20;;;;;;;11.35;10.30;;;23.50;1.00;;;;;;5053174;28;20040;-51
2023/05/28 08:29:46;;;;;;;11.77;9.80;;;23.50;1.00;;;;;;5055506;28;20028;-51
2023/05/28 08:32:12;;;;;;;11.27;9.43;;;23.60;1.00;;;;;;5048158;28;20037;-51
2023/05/28 08:34:38;;;;;;;10.75;9.75;;;23.60;1.00;;;;;;5055182;28;20459;-47
2023/05/28 08:37:06;;;;;;;12.00;10.73;;;23.60;1.00;;;;;;5052157;28;20025;-48
2023/05/28 08:39:32;;;;;;;12.05;10.23;;;23.70;1.00;;;;;;5055780;28;20103;-48
2023/05/28 08:41:58;;;;;;;11.18;10.02;;;23.70;1.00;;;;;;5048683;28;20033;-53
2023/05/28 08:44:24;;;;;;;11.77;10.18;;;23.80;1.00;;;;;;5055816;28;20052;-51
2023/05/28 08:46:51;;;;;;;12.13;10.88;;;23.80;1.00;;;;;;5053662;28;20040;-48
2023/05/28 08:49:22;;;;;;;12.48;9.93;;;23.80;1.00;;;;;;5047957;28;20056;-49
2023/05/28 08:51:50;;;;;;;12.43;11.13;;;23.90;1.00;;;;;;5050760;28;20029;-48
2023/05/28 08:54:17;;;;;;;11.80;9.65;;;23.90;1.00;;;;;;5054848;28;20025;-49
2023/05/28 08:56:43;;;;;;;11.40;9.48;;;24.00;1.00;;;;;;5054566;28;20425;-48
2023/05/28 08:59:12;;;;;;;11.60;9.98;;;24.00;1.00;;;;;;5055786;28;20129;-45
2023/05/28 09:01:39;;;;;;;11.00;9.52;;;24.10;1.00;;;;;;5053541;28;20033;-47
2023/05/28 09:04:04;;;;;;;10.63;9.52;;;24.20;1.00;;;;;;5055545;28;20033;-48
2023/05/28 09:06:31;;;;;;;13.75;10.13;;;24.20;1.00;;;;;;5054208;28;20029;-46
2023/05/28 09:08:57;;;;;;;11.90;9.82;;;24.30;1.00;;;;;;5050629;28;20028;-51
2023/05/28 09:11:35;;;;;;;11.02;9.55;;;24.40;1.00;;;;;;5052766;28;20060;-46
2023/05/28 09:14:12;;;;;;;10.75;9.38;;;24.40;1.00;;;;;;5054020;28;20090;-47
2023/05/28 09:16:44;;;;;;;10.35;9.27;;;24.40;1.00;;;;;;5052555;28;20048;-49
2023/05/28 09:19:14;;;;;;;10.93;9.07;;;24.40;1.00;;;;;;5055185;28;20094;-47
2023/05/28 09:21:57;;;;;;;9.65;8.68;;;24.60;1.00;;;;;;5052796;28;20025;-50
2023/05/28 09:24:26;;;;;;;11.15;8.90;;;24.60;1.00;;;;;;5054990;28;20025;-49
2023/05/28 09:26:55;;;;;;;11.85;9.02;;;24.70;1.00;;;;;;5052938;28;20045;-49
2023/05/28 09:29:25;;;;;;;9.55;8.65;;;24.70;1.00;;;;;;5053917;28;20032;-47
2023/05/28 09:31:59;;;;;;;10.30;9.23;;;24.80;1.00;;;;;;5041423;28;20031;-50
2023/05/28 09:34:29;;;;;;;11.00;10.00;;;24.70;1.00;;;;;;5053386;28;20032;-53
2023/05/28 09:37:05;;;;;;;11.38;8.52;;;24.70;1.00;;;;;;5054988;28;20458;-49
2023/05/28 09:39:31;;;;;;;13.35;11.35;;;24.80;1.00;;;;;;5052902;28;20056;-48
2023/05/28 09:42:03;;;;;;;12.40;11.20;;;24.80;1.00;;;;;;5054204;28;20033;-47
2023/05/28 09:44:33;;;;;;;14.55;11.63;;;24.90;1.00;;;;;;5054473;28;20056;-51
2023/05/28 09:46:59;;;;;;;13.10;11.73;;;24.90;1.00;;;;;;5054757;28;20041;-52
2023/05/28 09:49:29;;;;;;;12.98;10.90;;;24.90;1.00;;;;;;5054647;28;20471;-50
2023/05/28 09:51:59;;;;;;;12.73;11.25;;;25.00;1.00;;;;;;5052306;28;20033;-49
2023/05/28 09:54:31;;;;;;;11.90;10.63;;;25.00;1.00;;;;;;5052458;28;20056;-48
2023/05/28 09:57:01;;;;;;;14.40;12.60;;;25.10;1.00;;;;;;5053081;28;20029;-50
2023/05/28 09:59:30;;;;;;;13.65;12.25;;;25.10;1.00;;;;;;5047231;28;20360;-49
2023/05/28 10:02:18;;;;;;;11.57;10.40;;;25.20;1.00;;;;;;5054451;28;20068;-50
2023/05/28 10:04:45;;;;;;;13.30;11.95;;;25.20;1.00;;;;;;5044236;28;20097;-47
2023/05/28 10:07:11;;;;;;;14.20;12.57;;;25.30;1.00;;;;;;5054226;28;20033;-52
2023/05/28 10:09:40;;;;;;;13.60;12.20;;;25.40;1.00;;;;;;5050126;28;20025;-49
2023/05/28 10:12:12;;;;;;;14.00;12.32;;;25.40;1.00;;;;;;5052824;28;20028;-53
2023/05/28 10:14:39;;;;;;;13.25;11.00;;;25.40;1.00;;;;;;5054312;28;20131;-50
2023/05/28 10:17:10;;;;;;;15.15;12.40;;;25.30;1.00;;;;;;5051944;28;20060;-51
2023/05/28 10:19:37;;;;;;;16.85;14.05;;;25.40;1.00;;;;;;5054383;28;20025;-53
2023/05/28 10:22:02;;;;;;;14.98;11.52;;;25.60;1.00;;;;;;5039202;28;20100;-50
2023/05/28 10:24:31;;;;;;;12.20;10.45;;;25.80;1.00;;;;;;5049245;28;20104;-53
2023/05/28 10:26:57;;;;;;;15.48;13.85;;;26.00;1.00;;;;;;5048624;28;20099;-55
2023/05/28 10:29:23;;;;;;;15.63;12.93;;;26.10;1.00;;;;;;5052534;28;20029;-54
2023/05/28 10:32:07;;;;;;;12.23;10.98;;;26.10;1.00;;;;;;5050100;28;20079;-53
2023/05/28 10:34:35;;;;;;;14.52;10.55;;;26.20;99.90;;;;;;5053716;28;20487;-53
2023/05/28 10:37:06;;;;;;;11.98;10.75;;;26.30;1.00;;;;;;5051783;28;20028;-48
2023/05/28 10:39:42;;;;;;;14.63;10.95;;;26.50;99.90;;;;;;5053504;28;20425;-49
2023/05/28 10:42:16;;;;;;;13.13;11.82;;;26.50;99.90;;;;;;5043248;28;20035;-51
2023/05/28 10:45:00;;;;;;;13.68;12.27;;;26.50;99.90;;;;;;5053486;28;20116;-54
2023/05/28 10:47:36;;;;;;;14.13;12.65;;;26.50;99.90;;;;;;5050331;28;20055;-54
2023/05/28 10:50:16;;;;;;;14.30;12.80;;;26.60;99.90;;;;;;5053734;28;20064;-54
2023/05/28 10:53:08;;;;;;;15.68;13.88;;;26.80;99.90;;;;;;5051360;28;20057;-53
2023/05/28 10:55:54;;;;;;;13.35;11.35;;;26.90;99.90;;;;;;5051519;28;20044;-50
2023/05/28 10:58:33;;;;;;;13.15;11.88;;;27.10;99.90;;;;;;5046438;28;20416;-49
2023/05/28 11:01:11;;;;;;;13.98;12.38;;;27.10;99.90;;;;;;5051730;28;20029;-52
2023/05/28 11:03:52;;;;;;;13.73;11.95;;;27.10;99.90;;;;;;5053398;28;20130;-50
2023/05/28 11:06:18;;;;;;;12.85;11.27;;;27.60;99.90;;;;;;5049227;28;20032;-48
2023/05/28 11:08:48;;;;;;;12.15;10.90;;;27.70;99.90;;;;;;5053184;28;20054;-52
2023/05/28 11:11:16;;;;;;;14.95;12.77;;;27.80;99.90;;;;;;5052109;28;20017;-53
2023/05/28 11:13:43;;;;;;;13.30;11.70;;;27.80;99.90;;;;;;5053177;28;20040;-47
2023/05/28 11:16:10;;;;;;;12.07;10.55;;;27.90;99.90;;;;;;5051979;28;20352;-52
2023/05/28 11:18:36;;;;;;;13.18;11.75;;;28.20;99.90;;;;;;5051990;28;20028;-48
2023/05/28 11:21:11;;;;;;;13.93;10.68;;;28.40;99.90;;;;;;5050597;28;20043;-49
2023/05/28 11:23:37;;;;;;;14.10;12.63;;;28.70;99.90;;;;;;5053091;28;20021;-51
2023/05/28 11:26:20;;;;;;;13.80;12.10;;;28.80;99.90;;;;;;5051800;28;20021;-48
2023/05/28 11:28:49;;;;;;;13.95;12.38;;;28.80;99.90;;;;;;5038509;28;20052;-50
2023/05/28 11:31:15;;;;;;;14.40;11.90;;;28.60;99.90;;;;;;5044704;28;20060;-48
2023/05/28 11:33:40;;;;;;;13.77;12.25;;;28.70;99.90;;;;;;5052811;28;20094;-48
2023/05/28 11:36:06;;;;;;;12.02;10.82;;;28.90;99.90;;;;;;5048000;28;20043;-48
2023/05/28 11:38:32;;;;;;;11.85;10.60;;;29.30;99.90;;;;;;5050326;28;20091;-49
2023/05/28 11:40:59;;;;;;;12.60;10.95;;;29.70;99.90;;;;;;5054422;28;20064;-48
2023/05/28 11:43:25;;;;;;;12.65;11.45;;;30.20;99.90;;;;;;5057339;28;20028;-49
2023/05/28 11:45:56;;;;;;;12.52;11.32;;;30.50;99.90;;;;;;5054834;28;20532;-48
2023/05/28 11:48:22;;;;;;;11.75;10.63;;;31.20;99.90;;;;;;5056782;28;20068;-50
2023/05/28 11:50:48;;;;;;;12.73;11.40;;;32.30;99.90;;;;;;5056037;28;20462;-47
2023/05/28 11:53:13;;;;;;;12.07;10.98;;;33.80;99.90;;;;;;5053677;28;20025;-49
2023/05/28 11:55:39;;;;;;;13.27;10.88;;;34.10;99.90;;;;;;5052351;28;20021;-51
2023/05/28 11:58:05;;;;;;;15.63;14.07;;;33.40;99.90;;;;;;5055725;28;20037;-51
2023/05/28 12:00:35;;;;;;;14.13;12.82;;;31.90;99.90;;;;;;5056985;28;20040;-51
2023/05/28 12:03:01;;;;;;;12.75;11.50;;;31.90;99.90;;;;;;5044131;28;20063;-49
2023/05/28 12:05:27;;;;;;;11.85;10.73;;;31.90;99.90;;;;;;5054967;28;20028;-52
2023/05/28 12:07:54;;;;;;;12.48;10.30;;;33.30;99.90;;;;;;5054477;28;20063;-51
2023/05/28 12:10:26;;;;;;;12.30;10.80;;;35.40;99.90;;;;;;5054573;28;20029;-49
2023/05/28 12:12:56;;;;;;;12.25;11.07;;;37.00;99.90;;;;;;5045331;28;20061;-53
2023/05/28 12:15:29;;;;;;;11.27;10.27;;;37.00;99.90;;;;;;5051615;28;20505;-48
2023/05/28 12:18:04;;;;;;;15.13;13.35;;;37.80;99.90;;;;;;5055221;28;20025;-50
2023/05/28 12:20:49;;;;;;;13.45;12.25;;;38.20;99.90;;;;;;5053591;28;20028;-51
2023/05/28 12:23:21;;;;;;;12.88;11.68;;;39.20;99.90;;;;;;5048384;28;20056;-50
2023/05/28 12:25:51;;;;;;;12.95;11.65;;;39.50;99.90;;;;;;5056441;28;20033;-50
2023/05/28 12:28:18;;;;;;;12.82;11.63;;;39.70;99.90;;;;;;5053197;28;20415;-50
2023/05/28 12:30:46;;;;;;;13.88;11.55;;;39.20;99.90;;;;;;5056109;28;20025;-50
2023/05/28 12:33:12;;;;;;;12.40;11.30;;;39.40;99.90;;;;;;5054962;28;20037;-52
2023/05/28 12:35:37;;;;;;;11.35;9.90;;;39.10;99.90;;;;;;5056080;28;20032;-49
2023/05/28 12:38:03;;;;;;;11.15;10.00;;;38.30;99.90;;;;;;5054705;28;20045;-54
2023/05/28 12:40:29;;;;;;;8.63;7.85;;;37.90;99.90;;;;;;5054033;28;20029;-51
2023/05/28 12:42:55;;;;;;;10.10;9.20;;;38.70;99.90;;;;;;5045427;28;20029;-50
2023/05/28 12:45:21;;;;;;;11.80;10.50;;;37.20;99.90;;;;;;5042008;28;20040;-53
2023/05/28 12:47:46;;;;;;;9.60;8.80;;;35.60;99.90;;;;;;5055585;28;20116;-50